createdAt,value
2023-05-22T00:01:57.424Z,-89
2023-05-22T00:04:30.253Z,-88
2023-05-22T00:06:58.987Z,-89
2023-05-22T00:09:28.154Z,-88
2023-05-22T00:11:58.193Z,-89
2023-05-22T00:14:26.948Z,-89
2023-05-22T00:16:56.713Z,-89
2023-05-22T00:19:25.494Z,-88
2023-05-22T00:21:54.389Z,-89
2023-05-22T00:24:23.103Z,-88
2023-05-22T00:26:51.693Z,-88
2023-05-22T00:29:22.166Z,-88
2023-05-22T00:31:51.117Z,-88
2023-05-22T00:34:20.219Z,-88
2023-05-22T00:36:48.880Z,-88
2023-05-22T00:39:17.509Z,-89
2023-05-22T00:41:46.246Z,-89
2023-05-22T00:44:14.908Z,-89
2023-05-22T00:46:45.474Z,-89
2023-05-22T00:49:14.035Z,-89
2023-05-22T00:51:42.813Z,-89
2023-05-22T00:54:13.914Z,-89
2023-05-22T00:56:43.520Z,-89
2023-05-22T00:59:13.072Z,-89
2023-05-22T01:01:43.009Z,-88
2023-05-22T01:04:15.522Z,-89
2023-05-22T01:06:47.966Z,-89
2023-05-22T01:09:17.130Z,-89
2023-05-22T01:12:00.294Z,-89
2023-05-22T01:14:48.125Z,-88
2023-05-22T01:17:25.328Z,-89
2023-05-22T01:20:14.514Z,-88
2023-05-22T01:23:37.422Z,-89
2023-05-22T01:26:23.870Z,-89
2023-05-22T01:29:22.936Z,-89
2023-05-22T01:31:56.752Z,-89
2023-05-22T01:34:28.315Z,-89
2023-05-22T01:36:58.579Z,-89
2023-05-22T01:39:30.142Z,-89
2023-05-22T01:41:59.883Z,-88
2023-05-22T01:44:29.002Z,-89
2023-05-22T01:47:05.025Z,-89
2023-05-22T01:49:35.763Z,-89
2023-05-22T01:52:14.174Z,-89
2023-05-22T01:54:54.011Z,-89
2023-05-22T01:57:30.289Z,-89
2023-05-22T02:00:07.407Z,-89
2023-05-22T02:02:40.535Z,-89
2023-05-22T02:05:13.145Z,-88
2023-05-22T02:07:44.354Z,-89
2023-05-22T02:10:14.642Z,-89
2023-05-22T02:12:44.143Z,-89
2023-05-22T02:15:13.661Z,-89
2023-05-22T02:17:44.607Z,-89
2023-05-22T02:20:16.838Z,-88
2023-05-22T02:22:48.055Z,-89
2023-05-22T02:25:18.204Z,-90
2023-05-22T02:27:49.823Z,-88
2023-05-22T02:30:21.848Z,-89
2023-05-22T02:32:52.235Z,-89
2023-05-22T02:35:20.876Z,-89
2023-05-22T02:37:49.464Z,-89
2023-05-22T02:40:18.416Z,-88
2023-05-22T02:42:46.962Z,-88
2023-05-22T02:45:15.791Z,-89
2023-05-22T02:47:44.444Z,-89
2023-05-22T02:50:14.936Z,-89
2023-05-22T02:52:45.415Z,-89
2023-05-22T02:55:13.946Z,-88
2023-05-22T02:57:42.710Z,-89
2023-05-22T03:00:12.884Z,-88
2023-05-22T03:02:42.765Z,-88
2023-05-22T03:05:11.815Z,-88
2023-05-22T03:07:42.904Z,-89
2023-05-22T03:10:12.351Z,-89
2023-05-22T03:12:41.085Z,-89
2023-05-22T03:15:11.694Z,-89
2023-05-22T03:17:40.393Z,-89
2023-05-22T03:20:11.035Z,-89
2023-05-22T03:22:39.895Z,-87
2023-05-22T03:25:12.105Z,-88
2023-05-22T03:27:41.483Z,-88
2023-05-22T03:30:14.541Z,-90
2023-05-22T03:32:43.232Z,-89
2023-05-22T03:35:13.532Z,-89
2023-05-22T03:37:42.072Z,-89
2023-05-22T03:40:13.490Z,-89
2023-05-22T03:42:42.065Z,-89
2023-05-22T03:45:11.989Z,-89
2023-05-22T03:47:40.500Z,-89
2023-05-22T03:50:10.711Z,-89
2023-05-22T03:52:39.783Z,-89
2023-05-22T03:55:12.354Z,-89
2023-05-22T03:57:40.938Z,-89
2023-05-22T04:00:12.764Z,-89
2023-05-22T04:02:45.270Z,-89
2023-05-22T04:05:14.635Z,-89
2023-05-22T04:07:43.485Z,-89
2023-05-22T04:10:15.321Z,-89
2023-05-22T04:12:43.880Z,-88
2023-05-22T04:15:12.517Z,-89
2023-05-22T04:17:42.836Z,-89
2023-05-22T04:20:12.534Z,-89
2023-05-22T04:22:41.427Z,-89
2023-05-22T04:25:10.844Z,-89
2023-05-22T04:27:41.268Z,-89
2023-05-22T04:30:11.696Z,-88
2023-05-22T04:32:41.236Z,-88
2023-05-22T04:35:12.656Z,-87
2023-05-22T04:37:42.389Z,-89
2023-05-22T04:40:11.687Z,-89
2023-05-22T04:42:42.518Z,-88
2023-05-22T04:45:14.403Z,-88
2023-05-22T04:47:43.275Z,-88
2023-05-22T04:50:14.550Z,-89
2023-05-22T04:52:43.257Z,-88
2023-05-22T04:55:13.187Z,-88
2023-05-22T04:57:44.791Z,-89
2023-05-22T05:00:16.779Z,-89
2023-05-22T05:02:45.624Z,-88
2023-05-22T05:05:14.724Z,-89
2023-05-22T05:07:45.214Z,-88
2023-05-22T05:10:14.629Z,-88
2023-05-22T05:12:45.192Z,-88
2023-05-22T05:15:14.311Z,-88
2023-05-22T05:17:42.942Z,-88
2023-05-22T05:20:14.795Z,-88
2023-05-22T05:22:45.360Z,-88
2023-05-22T05:25:14.571Z,-88
2023-05-22T05:27:44.746Z,-88
2023-05-22T05:30:14.017Z,-88
2023-05-22T05:32:43.135Z,-88
2023-05-22T05:35:13.193Z,-89
2023-05-22T05:37:41.803Z,-88
2023-05-22T05:40:11.750Z,-88
2023-05-22T05:42:40.465Z,-88
2023-05-22T05:45:13.016Z,-88
2023-05-22T05:47:41.887Z,-88
2023-05-22T05:50:12.749Z,-88
2023-05-22T05:52:41.322Z,-88
2023-05-22T05:55:11.135Z,-88
2023-05-22T05:57:39.800Z,-88
2023-05-22T06:00:12.904Z,-87
2023-05-22T06:02:42.075Z,-88
2023-05-22T06:05:11.752Z,-88
2023-05-22T06:07:41.424Z,-88
2023-05-22T06:10:13.170Z,-87
2023-05-22T06:12:41.890Z,-86
2023-05-22T06:15:13.378Z,-86
2023-05-22T06:17:42.272Z,-85
2023-05-22T06:20:11.999Z,-86
2023-05-22T06:22:40.823Z,-86
2023-05-22T06:25:11.136Z,-86
2023-05-22T06:27:39.818Z,-86
2023-05-22T06:30:12.782Z,-86
2023-05-22T06:32:41.939Z,-85
2023-05-22T06:35:12.486Z,-86
2023-05-22T06:37:43.664Z,-86
2023-05-22T06:40:13.676Z,-87
2023-05-22T06:42:42.468Z,-86
2023-05-22T06:45:13.622Z,-86
2023-05-22T06:47:42.546Z,-86
2023-05-22T06:50:12.661Z,-87
2023-05-22T06:52:42.816Z,-86
2023-05-22T06:55:13.288Z,-86
2023-05-22T06:57:42.255Z,-86
2023-05-22T07:00:25.059Z,-86
2023-05-22T07:02:55.351Z,-86
2023-05-22T07:05:24.391Z,-86
2023-05-22T07:07:53.511Z,-86
2023-05-22T07:10:24.052Z,-86
2023-05-22T07:12:54.188Z,-86
2023-05-22T07:15:26.296Z,-86
2023-05-22T07:17:56.499Z,-86
2023-05-22T07:20:31.488Z,-86
2023-05-22T07:26:00.440Z,-86
2023-05-22T07:28:29.533Z,-84
2023-05-22T07:31:00.715Z,-86
2023-05-22T07:33:30.970Z,-87
2023-05-22T07:36:00.038Z,-85
2023-05-22T07:38:29.207Z,-86
2023-05-22T07:41:05.494Z,-85
2023-05-22T07:43:39.011Z,-85
2023-05-22T07:50:51.825Z,-86
2023-05-22T07:54:27.180Z,-86
2023-05-22T07:57:21.141Z,-86
2023-05-22T07:59:50.984Z,-86
2023-05-22T08:02:20.276Z,-86
2023-05-22T08:04:50.612Z,-85
2023-05-22T08:07:21.326Z,-85
2023-05-22T08:09:50.240Z,-85
2023-05-22T08:12:19.382Z,-86
2023-05-22T08:14:48.282Z,-86
2023-05-22T08:17:17.225Z,-86
2023-05-22T08:19:48.330Z,-85
2023-05-22T08:22:22.956Z,-85
2023-05-22T08:24:52.196Z,-86
2023-05-22T08:27:20.871Z,-85
2023-05-22T08:29:49.509Z,-85
2023-05-22T08:32:18.300Z,-85
2023-05-22T08:34:48.048Z,-85
2023-05-22T08:37:16.660Z,-84
2023-05-22T08:39:46.656Z,-84
2023-05-22T08:42:15.702Z,-84
2023-05-22T08:44:44.386Z,-84
2023-05-22T08:47:14.139Z,-84
2023-05-22T08:49:43.533Z,-86
2023-05-22T08:52:19.547Z,-85
2023-05-22T08:54:55.688Z,-84
2023-05-22T08:57:26.044Z,-83
2023-05-22T08:59:55.208Z,-84
2023-05-22T09:02:24.374Z,-85
2023-05-22T09:04:53.483Z,-85
2023-05-22T09:07:22.172Z,-86
2023-05-22T09:09:52.287Z,-86
2023-05-22T09:12:21.004Z,-86
2023-05-22T09:14:49.919Z,-86
2023-05-22T09:17:21.342Z,-86
2023-05-22T09:19:49.981Z,-85
2023-05-22T09:22:18.676Z,-86
2023-05-22T09:24:48.053Z,-86
2023-05-22T09:27:18.163Z,-85
2023-05-22T09:29:50.802Z,-86
2023-05-22T09:32:20.349Z,-86
2023-05-22T09:34:49.267Z,-86
2023-05-22T09:37:19.134Z,-88
2023-05-22T09:39:51.862Z,-86
2023-05-22T09:42:22.150Z,-86
2023-05-22T09:44:52.820Z,-86
2023-05-22T09:47:21.866Z,-87
2023-05-22T09:49:51.528Z,-86
2023-05-22T09:52:22.500Z,-87
2023-05-22T09:54:55.559Z,-86
2023-05-22T09:57:27.833Z,-86
2023-05-22T09:59:59.069Z,-86
2023-05-22T10:02:29.811Z,-85
2023-05-22T10:04:59.867Z,-85
2023-05-22T10:07:35.910Z,-85
2023-05-22T10:10:10.002Z,-85
2023-05-22T10:12:46.711Z,-84
2023-05-22T10:15:15.897Z,-85
2023-05-22T10:17:46.705Z,-83
2023-05-22T10:20:16.892Z,-83
2023-05-22T10:22:47.512Z,-83
2023-05-22T10:25:18.399Z,-85
2023-05-22T10:27:49.163Z,-85
2023-05-22T10:30:30.910Z,-85
2023-05-22T10:33:09.552Z,-84
2023-05-22T10:35:52.677Z,-84
2023-05-22T10:39:01.522Z,-85
2023-05-22T10:41:31.189Z,-85
2023-05-22T10:44:03.547Z,-85
2023-05-22T10:46:35.586Z,-85
2023-05-22T10:49:04.458Z,-85
2023-05-22T10:51:35.498Z,-85
2023-05-22T10:54:05.630Z,-85
2023-05-22T10:56:36.496Z,-86
2023-05-22T10:59:08.550Z,-85
2023-05-22T11:01:38.383Z,-85
2023-05-22T11:04:27.391Z,-84
2023-05-22T11:07:05.533Z,-84
2023-05-22T11:09:36.297Z,-85
2023-05-22T11:12:25.489Z,-86
2023-05-22T11:14:57.505Z,-85
2023-05-22T11:17:29.322Z,-86
2023-05-22T11:20:07.125Z,-87
2023-05-22T11:22:38.197Z,-86
2023-05-22T11:25:11.287Z,-88
2023-05-22T11:27:42.534Z,-87
2023-05-22T11:30:16.063Z,-86
2023-05-22T11:32:48.248Z,-88
2023-05-22T11:35:19.426Z,-86
2023-05-22T11:37:49.173Z,-86
2023-05-22T11:40:21.159Z,-87
2023-05-22T11:42:50.245Z,-87
2023-05-22T11:45:20.660Z,-86
2023-05-22T11:47:49.974Z,-86
2023-05-22T11:50:33.548Z,-87
2023-05-22T11:53:08.702Z,-86
2023-05-22T11:55:38.434Z,-86
2023-05-22T11:58:07.087Z,-87
2023-05-22T12:00:38.162Z,-88
2023-05-22T12:03:08.181Z,-87
2023-05-22T12:05:38.181Z,-87
2023-05-22T12:08:07.618Z,-87
2023-05-22T12:10:36.382Z,-87
2023-05-22T12:13:05.276Z,-87
2023-05-22T12:15:33.867Z,-87
2023-05-22T12:18:04.255Z,-87
2023-05-22T12:20:33.185Z,-86
2023-05-22T12:23:02.141Z,-87
2023-05-22T12:25:37.735Z,-87
2023-05-22T12:28:08.552Z,-88
2023-05-22T12:30:43.659Z,-88
2023-05-22T12:33:17.593Z,-88
2023-05-22T12:35:46.359Z,-88
2023-05-22T12:38:15.085Z,-88
2023-05-22T12:40:44.141Z,-89
2023-05-22T12:43:12.937Z,-88
2023-05-22T12:45:42.486Z,-88
2023-05-22T12:48:12.018Z,-87
2023-05-22T12:50:42.648Z,-87
2023-05-22T12:53:11.764Z,-87
2023-05-22T12:55:40.866Z,-87
2023-05-22T12:58:09.656Z,-87
2023-05-22T13:00:38.768Z,-86
2023-05-22T13:03:09.728Z,-86
2023-05-22T13:05:39.384Z,-86
2023-05-22T13:08:09.933Z,-86
2023-05-22T13:10:39.125Z,-86
2023-05-22T13:13:08.046Z,-86
2023-05-22T13:15:36.714Z,-86
2023-05-22T13:18:05.581Z,-86
2023-05-22T13:20:39.734Z,-87
2023-05-22T13:23:11.290Z,-86
2023-05-22T13:25:40.210Z,-86
2023-05-22T13:28:09.413Z,-87
2023-05-22T13:30:38.643Z,-86
2023-05-22T13:33:07.679Z,-86
2023-05-22T13:35:36.670Z,-86
2023-05-22T13:38:05.407Z,-86
2023-05-22T13:40:35.628Z,-86
2023-05-22T13:43:04.722Z,-85
2023-05-22T13:45:34.266Z,-85
2023-05-22T13:48:03.795Z,-84
2023-05-22T13:50:33.184Z,-85
2023-05-22T13:53:02.624Z,-84
2023-05-22T13:55:31.950Z,-85
2023-05-22T13:58:02.807Z,-85
2023-05-22T14:00:32.038Z,-85
2023-05-22T14:03:02.683Z,-85
2023-05-22T14:05:32.488Z,-85
2023-05-22T14:08:02.213Z,-85
2023-05-22T14:10:31.751Z,-85
2023-05-22T14:13:13.144Z,-85
2023-05-22T14:15:42.769Z,-84
2023-05-22T14:18:14.804Z,-85
2023-05-22T14:20:43.919Z,-85
2023-05-22T14:23:13.432Z,-84
2023-05-22T14:25:43.656Z,-84
2023-05-22T14:28:14.736Z,-85
2023-05-22T14:30:45.505Z,-86
2023-05-22T14:33:14.567Z,-84
2023-05-22T14:35:43.459Z,-88
2023-05-22T14:38:12.350Z,-89
2023-05-22T14:40:41.095Z,-89
2023-05-22T14:43:09.970Z,-89
2023-05-22T14:45:41.218Z,-89
2023-05-22T14:48:11.838Z,-89
2023-05-22T14:50:40.872Z,-89
2023-05-22T14:53:10.356Z,-89
2023-05-22T14:55:46.938Z,-89
2023-05-22T14:58:31.663Z,-89
2023-05-22T15:01:15.834Z,-89
2023-05-22T15:04:24.087Z,-89
2023-05-22T15:07:05.616Z,-88
2023-05-22T15:09:34.777Z,-89
2023-05-22T15:12:03.733Z,-88
2023-05-22T15:14:32.799Z,-88
2023-05-22T15:17:03.480Z,-88
2023-05-22T15:19:32.812Z,-88
2023-05-22T15:22:15.683Z,-88
2023-05-22T15:24:50.157Z,-88
2023-05-22T15:27:21.094Z,-88
2023-05-22T15:29:50.618Z,-88
2023-05-22T15:32:25.100Z,-88
2023-05-22T15:34:55.106Z,-88
2023-05-22T15:37:46.520Z,-88
2023-05-22T15:40:29.741Z,-87
2023-05-22T15:43:02.001Z,-88
2023-05-22T15:45:36.377Z,-88
2023-05-22T15:48:09.639Z,-88
2023-05-22T15:50:39.465Z,-89
2023-05-22T15:53:09.949Z,-88
2023-05-22T15:55:39.259Z,-89
2023-05-22T15:58:09.093Z,-88
2023-05-22T16:00:41.484Z,-89
2023-05-22T16:03:19.007Z,-88
2023-05-22T16:05:48.988Z,-89
2023-05-22T16:08:19.504Z,-89
2023-05-22T16:10:48.321Z,-89
2023-05-22T16:13:17.278Z,-89
2023-05-22T16:15:46.286Z,-88
2023-05-22T16:18:16.869Z,-88
2023-05-22T16:20:46.092Z,-89
2023-05-22T16:23:15.834Z,-88
2023-05-22T16:25:45.042Z,-89
2023-05-22T16:28:13.930Z,-88
2023-05-22T16:30:43.272Z,-88
2023-05-22T16:33:12.641Z,-89
2023-05-22T16:35:47.840Z,-89
2023-05-22T16:38:17.402Z,-89
2023-05-22T16:40:46.365Z,-89
2023-05-22T16:43:15.296Z,-89
2023-05-22T16:45:47.816Z,-88
2023-05-22T16:48:18.890Z,-88
2023-05-22T16:50:50.148Z,-87
2023-05-22T16:53:19.447Z,-88
2023-05-22T16:55:48.301Z,-87
2023-05-22T16:58:17.902Z,-90
2023-05-22T17:00:46.797Z,-89
2023-05-22T17:03:15.746Z,-90
2023-05-22T17:05:47.862Z,-90
2023-05-22T17:08:18.422Z,-91
2023-05-22T17:10:47.039Z,-91
2023-05-22T17:13:20.911Z,-89
2023-05-22T17:15:50.376Z,-89
2023-05-22T17:18:21.381Z,-89
2023-05-22T17:20:50.736Z,-89
2023-05-22T17:23:21.280Z,-89
2023-05-22T17:25:52.536Z,-89
2023-05-22T17:28:21.634Z,-89
2023-05-22T17:30:50.582Z,-89
2023-05-22T17:33:19.307Z,-89
2023-05-22T17:35:49.335Z,-89
2023-05-22T17:38:19.503Z,-89
2023-05-22T17:40:48.547Z,-89
2023-05-22T17:43:19.201Z,-89
2023-05-22T17:45:51.298Z,-90
2023-05-22T17:48:24.008Z,-91
2023-05-22T17:50:53.142Z,-89
2023-05-22T17:53:24.370Z,-90
2023-05-22T17:55:54.796Z,-90
2023-05-22T17:58:25.355Z,-89
2023-05-22T18:00:54.513Z,-90
2023-05-22T18:03:23.491Z,-90
2023-05-22T18:05:52.789Z,-90
2023-05-22T18:08:23.746Z,-90
2023-05-22T18:10:52.693Z,-90
2023-05-22T18:13:21.436Z,-89
2023-05-22T18:15:51.475Z,-90
2023-05-22T18:18:20.976Z,-89
2023-05-22T18:20:49.809Z,-89
2023-05-22T18:23:19.811Z,-90
2023-05-22T18:25:51.428Z,-89
2023-05-22T18:28:23.827Z,-91
2023-05-22T18:30:53.110Z,-90
2023-05-22T18:33:23.208Z,-90
2023-05-22T18:35:53.977Z,-90
2023-05-22T18:38:24.692Z,-90
2023-05-22T18:40:57.113Z,-91
2023-05-22T18:43:29.019Z,-90
2023-05-22T18:45:58.285Z,-90
2023-05-22T18:48:27.447Z,-89
2023-05-22T18:50:57.881Z,-89
2023-05-22T18:53:28.842Z,-90
2023-05-22T18:55:59.221Z,-90
2023-05-22T18:58:28.273Z,-90
2023-05-22T19:00:57.064Z,-90
2023-05-22T19:03:26.070Z,-90
2023-05-22T19:05:55.643Z,-90
2023-05-22T19:08:26.826Z,-90
2023-05-22T19:10:59.997Z,-90
2023-05-22T19:13:32.701Z,-90
2023-05-22T19:16:02.826Z,-90
2023-05-22T19:18:33.796Z,-89
2023-05-22T19:21:02.572Z,-89
2023-05-22T19:23:33.109Z,-89
2023-05-22T19:26:02.029Z,-89
2023-05-22T19:28:32.630Z,-90
2023-05-22T19:31:03.960Z,-89
2023-05-22T19:33:32.900Z,-89
2023-05-22T19:36:07.205Z,-89
2023-05-22T19:38:36.133Z,-89
2023-05-22T19:41:05.035Z,-89
2023-05-22T19:43:35.392Z,-88
2023-05-22T19:46:08.557Z,-90
2023-05-22T19:48:38.329Z,-89
2023-05-22T19:51:08.922Z,-89
2023-05-22T19:53:38.345Z,-89
2023-05-22T19:56:07.180Z,-89
2023-05-22T19:58:37.840Z,-89
2023-05-22T20:01:06.626Z,-89
2023-05-22T20:03:35.913Z,-89
2023-05-22T20:06:04.850Z,-89
2023-05-22T20:08:33.625Z,-90
2023-05-22T20:11:02.659Z,-89
2023-05-22T20:13:31.331Z,-90
2023-05-22T20:16:04.283Z,-90
2023-05-22T20:18:33.253Z,-89
2023-05-22T20:21:02.963Z,-89
2023-05-22T20:23:31.889Z,-89
2023-05-22T20:26:01.184Z,-90
2023-05-22T20:28:29.899Z,-89
2023-05-22T20:31:00.490Z,-90
2023-05-22T20:33:29.213Z,-89
2023-05-22T20:35:58.613Z,-89
2023-05-22T20:38:28.789Z,-90
2023-05-22T20:40:58.693Z,-89
2023-05-22T20:43:31.023Z,-89
2023-05-22T20:46:02.487Z,-90
2023-05-22T20:48:31.451Z,-90
2023-05-22T20:51:00.246Z,-90
2023-05-22T20:53:29.096Z,-89
2023-05-22T20:55:57.999Z,-89
2023-05-22T20:58:27.605Z,-90
2023-05-22T21:00:56.232Z,-89
2023-05-22T21:03:26.549Z,-89
2023-05-22T21:05:55.338Z,-88
2023-05-22T21:08:24.364Z,-89
2023-05-22T21:10:53.112Z,-89
2023-05-22T21:13:21.947Z,-89
2023-05-22T21:15:50.902Z,-89
2023-05-22T21:18:20.799Z,-89
2023-05-22T21:21:20.280Z,-90
2023-05-22T21:23:49.912Z,-90
2023-05-22T21:26:18.924Z,-90
2023-05-22T21:28:47.863Z,-90
2023-05-22T21:31:17.474Z,-90
2023-05-22T21:33:46.984Z,-90
2023-05-22T21:36:17.241Z,-89
2023-05-22T21:38:46.713Z,-90
2023-05-22T21:41:18.651Z,-90
2023-05-22T21:43:48.081Z,-90
2023-05-22T21:46:16.721Z,-90
2023-05-22T21:48:45.731Z,-90
2023-05-22T21:51:15.144Z,-90
2023-05-22T21:53:45.159Z,-90
2023-05-22T21:56:13.978Z,-90
2023-05-22T21:58:42.728Z,-90
2023-05-22T22:01:11.713Z,-89
2023-05-22T22:03:40.661Z,-90
2023-05-22T22:06:10.357Z,-89
2023-05-22T22:08:41.195Z,-90
2023-05-22T22:11:11.506Z,-90
2023-05-22T22:13:40.137Z,-90
2023-05-22T22:16:10.876Z,-90
2023-05-22T22:18:40.709Z,-90
2023-05-22T22:21:10.597Z,-89
2023-05-22T22:23:39.506Z,-89
2023-05-22T22:26:08.611Z,-89
2023-05-22T22:28:38.939Z,-89
2023-05-22T22:31:07.721Z,-89
2023-05-22T22:33:36.301Z,-89
2023-05-22T22:36:05.196Z,-89
2023-05-22T22:38:35.257Z,-89
2023-05-22T22:41:08.776Z,-89
2023-05-22T22:43:39.007Z,-89
2023-05-22T22:46:08.851Z,-88
2023-05-22T22:48:37.945Z,-88
2023-05-22T22:51:07.180Z,-89
2023-05-22T22:53:35.810Z,-89
2023-05-22T22:56:04.797Z,-89
2023-05-22T22:58:33.582Z,-89
2023-05-22T23:01:05.264Z,-89
2023-05-22T23:03:33.859Z,-90
2023-05-22T23:06:03.619Z,-90
2023-05-22T23:08:32.958Z,-90
2023-05-22T23:11:01.538Z,-90
2023-05-22T23:13:30.155Z,-90
2023-05-22T23:15:58.971Z,-89
2023-05-22T23:18:30.426Z,-89
2023-05-22T23:20:58.957Z,-89
2023-05-22T23:23:28.220Z,-89
2023-05-22T23:25:58.885Z,-89
2023-05-22T23:28:28.243Z,-89
2023-05-22T23:30:57.454Z,-89
2023-05-22T23:33:26.067Z,-90
2023-05-22T23:35:56.410Z,-90
2023-05-22T23:38:27.700Z,-90
2023-05-22T23:40:57.215Z,-90
2023-05-22T23:43:26.821Z,-89
2023-05-22T23:45:55.901Z,-89
2023-05-22T23:48:24.650Z,-89
2023-05-22T23:50:53.234Z,-90
2023-05-22T23:53:23.447Z,-90
2023-05-22T23:55:52.103Z,-89
2023-05-22T23:58:21.048Z,-90
